Terminal Aerodrome Forecast
Issued by NWS Boston, MA

Home | Current Version | Previous Version | Text Only | Print | Product List | Glossary On
Versions: 1 2 3 4 5 6 7 8 9 10 11 12 13 14 15 16 17 18 19 20 21 22 23 24 25 26 27 28 29 30 31 32 33 34 35 36 37 38 39 40 41 42 43 44 45
000
FTUS41 KBOX 281121
TAFPVD
TAF
KPVD 281121Z 2812/2912 01010KT 5SM -SHRASN OVC015
     FM281400 36011KT 4SM -SHSNRA OVC008
     FM281800 02009KT 2SM -SHSN OVC010
     FM290100 01007KT 3SM BR OVC010
     FM290300 35008KT 3SM BR OVC015
     FM290500 34009KT 5SM BR OVC025
     FM291100 34009KT P6SM SCT025=

USA.gov is the U.S. government's official web portal to all federal, state and local government web resources and services.